sensor_id;sensor_type;location;lat;lon;timestamp;P1;durP1;ratioP1;P2;durP2;ratioP2
19414;SDS011;9843;48.882;12.592;2024-03-02T00:01:19;138.93;;;59.67;;
19414;SDS011;9843;48.882;12.592;2024-03-02T00:03:48;141.23;;;61.57;;
19414;SDS011;9843;48.882;12.592;2024-03-02T00:06:18;140.27;;;57.57;;
19414;SDS011;9843;48.882;12.592;2024-03-02T00:08:46;136.63;;;58.80;;
19414;SDS011;9843;48.882;12.592;2024-03-02T00:11:13;125.40;;;57.27;;
19414;SDS011;9843;48.882;12.592;2024-03-02T00:13:41;151.37;;;57.23;;
19414;SDS011;9843;48.882;12.592;2024-03-02T00:16:08;144.83;;;60.07;;
19414;SDS011;9843;48.882;12.592;2024-03-02T00:18:36;144.13;;;60.80;;
19414;SDS011;9843;48.882;12.592;2024-03-02T00:21:05;144.40;;;59.60;;
19414;SDS011;9843;48.882;12.592;2024-03-02T00:23:34;121.97;;;59.40;;
19414;SDS011;9843;48.882;12.592;2024-03-02T00:26:01;144.57;;;60.00;;
19414;SDS011;9843;48.882;12.592;2024-03-02T00:28:29;147.27;;;57.93;;
19414;SDS011;9843;48.882;12.592;2024-03-02T00:30:59;135.93;;;60.57;;
19414;SDS011;9843;48.882;12.592;2024-03-02T00:33:26;149.90;;;61.07;;
19414;SDS011;9843;48.882;12.592;2024-03-02T00:35:54;141.63;;;63.33;;
19414;SDS011;9843;48.882;12.592;2024-03-02T00:38:22;151.10;;;61.40;;
19414;SDS011;9843;48.882;12.592;2024-03-02T00:40:49;152.30;;;58.87;;
19414;SDS011;9843;48.882;12.592;2024-03-02T00:43:37;144.50;;;59.67;;
19414;SDS011;9843;48.882;12.592;2024-03-02T00:46:05;153.10;;;62.43;;
19414;SDS011;9843;48.882;12.592;2024-03-02T00:48:33;144.27;;;63.77;;
19414;SDS011;9843;48.882;12.592;2024-03-02T00:51:01;148.37;;;59.73;;
19414;SDS011;9843;48.882;12.592;2024-03-02T00:53:31;129.00;;;61.53;;
19414;SDS011;9843;48.882;12.592;2024-03-02T00:55:58;156.13;;;64.43;;
19414;SDS011;9843;48.882;12.592;2024-03-02T00:58:25;141.43;;;62.57;;
19414;SDS011;9843;48.882;12.592;2024-03-02T01:00:52;150.97;;;62.57;;
19414;SDS011;9843;48.882;12.592;2024-03-02T01:03:20;175.07;;;65.50;;
19414;SDS011;9843;48.882;12.592;2024-03-02T01:05:47;144.77;;;62.17;;
19414;SDS011;9843;48.882;12.592;2024-03-02T01:08:14;153.63;;;64.37;;
19414;SDS011;9843;48.882;12.592;2024-03-02T01:10:43;161.13;;;71.13;;
19414;SDS011;9843;48.882;12.592;2024-03-02T01:13:10;152.83;;;62.33;;
19414;SDS011;9843;48.882;12.592;2024-03-02T01:15:37;142.53;;;62.37;;
19414;SDS011;9843;48.882;12.592;2024-03-02T01:18:04;159.13;;;65.90;;
19414;SDS011;9843;48.882;12.592;2024-03-02T01:20:31;146.17;;;62.87;;
19414;SDS011;9843;48.882;12.592;2024-03-02T01:22:58;157.40;;;62.90;;
19414;SDS011;9843;48.882;12.592;2024-03-02T01:25:25;152.20;;;65.70;;
19414;SDS011;9843;48.882;12.592;2024-03-02T01:27:54;154.03;;;63.23;;
19414;SDS011;9843;48.882;12.592;2024-03-02T01:30:21;164.43;;;63.00;;
19414;SDS011;9843;48.882;12.592;2024-03-02T01:32:48;155.40;;;64.00;;
19414;SDS011;9843;48.882;12.592;2024-03-02T01:35:15;153.30;;;66.63;;
19414;SDS011;9843;48.882;12.592;2024-03-02T01:37:42;149.13;;;65.73;;
19414;SDS011;9843;48.882;12.592;2024-03-02T01:40:10;157.77;;;63.67;;
19414;SDS011;9843;48.882;12.592;2024-03-02T01:42:37;154.53;;;65.03;;
19414;SDS011;9843;48.882;12.592;2024-03-02T01:45:06;158.90;;;65.87;;
19414;SDS011;9843;48.882;12.592;2024-03-02T01:47:34;153.70;;;62.70;;
19414;SDS011;9843;48.882;12.592;2024-03-02T01:50:01;159.63;;;64.13;;
19414;SDS011;9843;48.882;12.592;2024-03-02T01:52:28;155.27;;;64.13;;
19414;SDS011;9843;48.882;12.592;2024-03-02T01:54:55;159.10;;;67.20;;
19414;SDS011;9843;48.882;12.592;2024-03-02T01:57:22;164.40;;;67.80;;
19414;SDS011;9843;48.882;12.592;2024-03-02T01:59:49;149.03;;;60.57;;
19414;SDS011;9843;48.882;12.592;2024-03-02T02:02:18;155.73;;;66.03;;
19414;SDS011;9843;48.882;12.592;2024-03-02T02:04:45;168.47;;;65.17;;
19414;SDS011;9843;48.882;12.592;2024-03-02T02:07:12;164.20;;;63.30;;
19414;SDS011;9843;48.882;12.592;2024-03-02T02:09:39;158.07;;;66.87;;
19414;SDS011;9843;48.882;12.592;2024-03-02T02:12:07;153.80;;;65.13;;
19414;SDS011;9843;48.882;12.592;2024-03-02T02:14:34;155.63;;;64.60;;
19414;SDS011;9843;48.882;12.592;2024-03-02T02:17:01;145.50;;;63.60;;
19414;SDS011;9843;48.882;12.592;2024-03-02T02:19:29;169.90;;;68.43;;
19414;SDS011;9843;48.882;12.592;2024-03-02T02:21:58;159.97;;;68.40;;
19414;SDS011;9843;48.882;12.592;2024-03-02T02:24:25;170.53;;;68.07;;
19414;SDS011;9843;48.882;12.592;2024-03-02T02:26:52;190.37;;;70.30;;
19414;SDS011;9843;48.882;12.592;2024-03-02T02:29:19;166.10;;;70.53;;
19414;SDS011;9843;48.882;12.592;2024-03-02T02:31:46;163.57;;;70.07;;
19414;SDS011;9843;48.882;12.592;2024-03-02T02:34:13;185.57;;;69.97;;
19414;SDS011;9843;48.882;12.592;2024-03-02T02:36:41;178.93;;;73.57;;
19414;SDS011;9843;48.882;12.592;2024-03-02T02:39:10;200.03;;;76.77;;
19414;SDS011;9843;48.882;12.592;2024-03-02T02:41:38;197.07;;;72.43;;
19414;SDS011;9843;48.882;12.592;2024-03-02T02:44:05;188.23;;;72.07;;
19414;SDS011;9843;48.882;12.592;2024-03-02T02:46:32;191.63;;;73.30;;
19414;SDS011;9843;48.882;12.592;2024-03-02T02:48:59;199.07;;;74.70;;
19414;SDS011;9843;48.882;12.592;2024-03-02T02:51:26;157.30;;;69.73;;
19414;SDS011;9843;48.882;12.592;2024-03-02T02:53:53;172.13;;;72.37;;
19414;SDS011;9843;48.882;12.592;2024-03-02T02:56:22;204.80;;;77.83;;
19414;SDS011;9843;48.882;12.592;2024-03-02T02:58:49;186.37;;;80.03;;
19414;SDS011;9843;48.882;12.592;2024-03-02T03:01:16;199.60;;;75.27;;
19414;SDS011;9843;48.882;12.592;2024-03-02T03:03:44;201.50;;;76.93;;
19414;SDS011;9843;48.882;12.592;2024-03-02T03:06:11;193.10;;;80.67;;
19414;SDS011;9843;48.882;12.592;2024-03-02T03:08:37;196.23;;;74.07;;
19414;SDS011;9843;48.882;12.592;2024-03-02T03:11:04;188.73;;;77.67;;
19414;SDS011;9843;48.882;12.592;2024-03-02T03:13:33;177.07;;;77.87;;
19414;SDS011;9843;48.882;12.592;2024-03-02T03:16:00;208.10;;;76.07;;
19414;SDS011;9843;48.882;12.592;2024-03-02T03:18:28;192.50;;;75.73;;
19414;SDS011;9843;48.882;12.592;2024-03-02T03:20:55;201.90;;;75.77;;
19414;SDS011;9843;48.882;12.592;2024-03-02T03:23:22;217.13;;;76.43;;
19414;SDS011;9843;48.882;12.592;2024-03-02T03:25:50;207.10;;;77.20;;
19414;SDS011;9843;48.882;12.592;2024-03-02T03:28:18;190.83;;;75.57;;
19414;SDS011;9843;48.882;12.592;2024-03-02T03:30:46;201.87;;;77.23;;
19414;SDS011;9843;48.882;12.592;2024-03-02T03:33:13;184.00;;;74.77;;
19414;SDS011;9843;48.882;12.592;2024-03-02T03:35:40;200.57;;;77.57;;
19414;SDS011;9843;48.882;12.592;2024-03-02T03:38:07;199.70;;;75.10;;
19414;SDS011;9843;48.882;12.592;2024-03-02T03:40:34;193.43;;;76.33;;
19414;SDS011;9843;48.882;12.592;2024-03-02T03:43:02;191.13;;;77.50;;
19414;SDS011;9843;48.882;12.592;2024-03-02T03:45:29;182.97;;;77.20;;
19414;SDS011;9843;48.882;12.592;2024-03-02T03:47:57;215.47;;;84.33;;
19414;SDS011;9843;48.882;12.592;2024-03-02T03:50:24;201.30;;;82.97;;
19414;SDS011;9843;48.882;12.592;2024-03-02T03:52:51;193.40;;;79.07;;
19414;SDS011;9843;48.882;12.592;2024-03-02T03:55:18;212.00;;;83.97;;
19414;SDS011;9843;48.882;12.592;2024-03-02T03:57:45;208.07;;;84.77;;
19414;SDS011;9843;48.882;12.592;2024-03-02T04:00:13;193.43;;;79.77;;
19414;SDS011;9843;48.882;12.592;2024-03-02T04:02:40;215.77;;;83.33;;
19414;SDS011;9843;48.882;12.592;2024-03-02T04:05:09;205.97;;;83.77;;
19414;SDS011;9843;48.882;12.592;2024-03-02T04:07:36;219.90;;;88.67;;
19414;SDS011;9843;48.882;12.592;2024-03-02T04:10:08;228.50;;;86.67;;
19414;SDS011;9843;48.882;12.592;2024-03-02T04:12:35;230.67;;;90.37;;
19414;SDS011;9843;48.882;12.592;2024-03-02T04:15:03;247.43;;;86.37;;
19414;SDS011;9843;48.882;12.592;2024-03-02T04:17:31;233.77;;;89.33;;
19414;SDS011;9843;48.882;12.592;2024-03-02T04:19:58;239.53;;;89.43;;
19414;SDS011;9843;48.882;12.592;2024-03-02T04:22:27;224.80;;;87.97;;
19414;SDS011;9843;48.882;12.592;2024-03-02T04:24:54;247.60;;;83.20;;
19414;SDS011;9843;48.882;12.592;2024-03-02T04:27:21;228.40;;;87.80;;
19414;SDS011;9843;48.882;12.592;2024-03-02T04:29:48;256.93;;;93.73;;
19414;SDS011;9843;48.882;12.592;2024-03-02T04:32:15;270.97;;;90.20;;
19414;SDS011;9843;48.882;12.592;2024-03-02T04:34:44;261.50;;;87.93;;
19414;SDS011;9843;48.882;12.592;2024-03-02T04:37:11;220.67;;;79.80;;
19414;SDS011;9843;48.882;12.592;2024-03-02T04:39:40;262.90;;;93.77;;
19414;SDS011;9843;48.882;12.592;2024-03-02T04:42:08;240.37;;;86.93;;
19414;SDS011;9843;48.882;12.592;2024-03-02T04:44:35;208.93;;;80.77;;
19414;SDS011;9843;48.882;12.592;2024-03-02T04:47:03;196.37;;;76.53;;
19414;SDS011;9843;48.882;12.592;2024-03-02T04:49:30;220.80;;;82.97;;
19414;SDS011;9843;48.882;12.592;2024-03-02T04:51:57;235.47;;;81.90;;
19414;SDS011;9843;48.882;12.592;2024-03-02T04:54:24;243.20;;;80.57;;
19414;SDS011;9843;48.882;12.592;2024-03-02T04:56:52;200.67;;;82.03;;
19414;SDS011;9843;48.882;12.592;2024-03-02T04:59:20;215.80;;;81.37;;
19414;SDS011;9843;48.882;12.592;2024-03-02T05:01:47;187.57;;;77.90;;
19414;SDS011;9843;48.882;12.592;2024-03-02T05:04:14;170.10;;;70.23;;
19414;SDS011;9843;48.882;12.592;2024-03-02T05:06:41;213.63;;;79.27;;
19414;SDS011;9843;48.882;12.592;2024-03-02T05:09:08;228.17;;;79.97;;
19414;SDS011;9843;48.882;12.592;2024-03-02T05:11:35;212.00;;;82.63;;
19414;SDS011;9843;48.882;12.592;2024-03-02T05:14:36;210.17;;;78.40;;
19414;SDS011;9843;48.882;12.592;2024-03-02T05:17:03;200.77;;;85.77;;
19414;SDS011;9843;48.882;12.592;2024-03-02T05:19:30;215.77;;;82.33;;
19414;SDS011;9843;48.882;12.592;2024-03-02T05:21:58;235.60;;;83.83;;
19414;SDS011;9843;48.882;12.592;2024-03-02T05:24:25;216.13;;;79.60;;
19414;SDS011;9843;48.882;12.592;2024-03-02T05:26:53;247.40;;;89.77;;
19414;SDS011;9843;48.882;12.592;2024-03-02T05:29:20;258.00;;;94.20;;
19414;SDS011;9843;48.882;12.592;2024-03-02T05:31:48;247.63;;;92.87;;
19414;SDS011;9843;48.882;12.592;2024-03-02T05:34:15;266.90;;;92.50;;
19414;SDS011;9843;48.882;12.592;2024-03-02T05:36:43;293.20;;;99.53;;
19414;SDS011;9843;48.882;12.592;2024-03-02T05:39:10;263.03;;;93.10;;
19414;SDS011;9843;48.882;12.592;2024-03-02T05:41:37;304.00;;;97.97;;
19414;SDS011;9843;48.882;12.592;2024-03-02T05:44:04;280.23;;;97.97;;
19414;SDS011;9843;48.882;12.592;2024-03-02T05:46:31;281.77;;;93.23;;
19414;SDS011;9843;48.882;12.592;2024-03-02T05:49:00;263.20;;;93.73;;
19414;SDS011;9843;48.882;12.592;2024-03-02T05:51:27;297.27;;;103.13;;
19414;SDS011;9843;48.882;12.592;2024-03-02T05:53:54;266.57;;;95.93;;
19414;SDS011;9843;48.882;12.592;2024-03-02T05:56:21;289.33;;;99.90;;
19414;SDS011;9843;48.882;12.592;2024-03-02T05:58:48;289.37;;;99.40;;
19414;SDS011;9843;48.882;12.592;2024-03-02T06:01:32;261.00;;;90.43;;
19414;SDS011;9843;48.882;12.592;2024-03-02T06:04:00;273.07;;;95.47;;
19414;SDS011;9843;48.882;12.592;2024-03-02T06:06:27;287.43;;;102.13;;
19414;SDS011;9843;48.882;12.592;2024-03-02T06:08:54;293.67;;;100.70;;
19414;SDS011;9843;48.882;12.592;2024-03-02T06:11:21;288.53;;;100.60;;
19414;SDS011;9843;48.882;12.592;2024-03-02T06:13:48;290.40;;;98.33;;
19414;SDS011;9843;48.882;12.592;2024-03-02T06:16:15;289.63;;;95.83;;
19414;SDS011;9843;48.882;12.592;2024-03-02T06:18:42;296.00;;;99.93;;
19414;SDS011;9843;48.882;12.592;2024-03-02T06:21:11;297.67;;;97.70;;
19414;SDS011;9843;48.882;12.592;2024-03-02T06:23:38;275.77;;;95.70;;
19414;SDS011;9843;48.882;12.592;2024-03-02T06:26:05;293.97;;;100.13;;
19414;SDS011;9843;48.882;12.592;2024-03-02T06:28:32;307.13;;;98.70;;
19414;SDS011;9843;48.882;12.592;2024-03-02T06:30:59;266.37;;;91.10;;
19414;SDS011;9843;48.882;12.592;2024-03-02T06:33:27;306.30;;;102.00;;
19414;SDS011;9843;48.882;12.592;2024-03-02T06:35:54;310.43;;;100.53;;
19414;SDS011;9843;48.882;12.592;2024-03-02T06:38:22;284.87;;;101.03;;
19414;SDS011;9843;48.882;12.592;2024-03-02T06:40:49;294.83;;;101.93;;
19414;SDS011;9843;48.882;12.592;2024-03-02T06:43:16;247.47;;;94.33;;
19414;SDS011;9843;48.882;12.592;2024-03-02T06:45:43;281.60;;;97.90;;
19414;SDS011;9843;48.882;12.592;2024-03-02T06:48:10;267.97;;;99.17;;
19414;SDS011;9843;48.882;12.592;2024-03-02T06:50:38;237.00;;;89.40;;
19414;SDS011;9843;48.882;12.592;2024-03-02T06:53:05;226.93;;;86.97;;
19414;SDS011;9843;48.882;12.592;2024-03-02T06:55:33;274.40;;;93.87;;
19414;SDS011;9843;48.882;12.592;2024-03-02T06:58:00;270.37;;;92.00;;
19414;SDS011;9843;48.882;12.592;2024-03-02T07:00:27;255.43;;;89.03;;
19414;SDS011;9843;48.882;12.592;2024-03-02T07:02:54;272.30;;;89.90;;
19414;SDS011;9843;48.882;12.592;2024-03-02T07:05:21;269.50;;;90.80;;
19414;SDS011;9843;48.882;12.592;2024-03-02T07:07:48;206.93;;;80.60;;
19414;SDS011;9843;48.882;12.592;2024-03-02T07:10:16;253.00;;;88.93;;
19414;SDS011;9843;48.882;12.592;2024-03-02T07:12:44;208.13;;;80.40;;
19414;SDS011;9843;48.882;12.592;2024-03-02T07:15:11;234.77;;;82.60;;
19414;SDS011;9843;48.882;12.592;2024-03-02T07:17:55;238.17;;;85.40;;
19414;SDS011;9843;48.882;12.592;2024-03-02T07:20:22;217.80;;;83.27;;
19414;SDS011;9843;48.882;12.592;2024-03-02T07:22:49;235.63;;;87.17;;
19414;SDS011;9843;48.882;12.592;2024-03-02T07:25:16;226.70;;;85.17;;
19414;SDS011;9843;48.882;12.592;2024-03-02T07:27:44;235.57;;;85.97;;
19414;SDS011;9843;48.882;12.592;2024-03-02T07:30:13;234.40;;;83.10;;
19414;SDS011;9843;48.882;12.592;2024-03-02T07:32:42;228.40;;;86.47;;
19414;SDS011;9843;48.882;12.592;2024-03-02T07:35:11;226.83;;;82.57;;
19414;SDS011;9843;48.882;12.592;2024-03-02T07:37:38;215.43;;;79.00;;
19414;SDS011;9843;48.882;12.592;2024-03-02T07:40:06;210.70;;;79.03;;
19414;SDS011;9843;48.882;12.592;2024-03-02T07:42:36;182.03;;;73.93;;
19414;SDS011;9843;48.882;12.592;2024-03-02T07:45:05;193.70;;;78.33;;
19414;SDS011;9843;48.882;12.592;2024-03-02T07:47:32;173.20;;;71.57;;
19414;SDS011;9843;48.882;12.592;2024-03-02T07:50:00;187.57;;;73.10;;
19414;SDS011;9843;48.882;12.592;2024-03-02T07:52:27;176.37;;;77.83;;
19414;SDS011;9843;48.882;12.592;2024-03-02T07:54:54;172.53;;;70.97;;
19414;SDS011;9843;48.882;12.592;2024-03-02T07:57:21;196.23;;;76.20;;
19414;SDS011;9843;48.882;12.592;2024-03-02T07:59:48;172.90;;;74.60;;
19414;SDS011;9843;48.882;12.592;2024-03-02T08:02:16;174.03;;;73.97;;
19414;SDS011;9843;48.882;12.592;2024-03-02T08:04:44;179.80;;;70.97;;
19414;SDS011;9843;48.882;12.592;2024-03-02T08:07:11;175.80;;;75.33;;
19414;SDS011;9843;48.882;12.592;2024-03-02T08:09:38;196.83;;;77.73;;
19414;SDS011;9843;48.882;12.592;2024-03-02T08:12:05;180.47;;;78.77;;
19414;SDS011;9843;48.882;12.592;2024-03-02T08:14:33;184.93;;;77.63;;
19414;SDS011;9843;48.882;12.592;2024-03-02T08:17:00;167.67;;;73.27;;
19414;SDS011;9843;48.882;12.592;2024-03-02T08:19:29;165.07;;;70.47;;
19414;SDS011;9843;48.882;12.592;2024-03-02T08:21:56;151.10;;;69.70;;
19414;SDS011;9843;48.882;12.592;2024-03-02T08:24:24;156.17;;;70.87;;
19414;SDS011;9843;48.882;12.592;2024-03-02T08:26:51;134.70;;;65.30;;
19414;SDS011;9843;48.882;12.592;2024-03-02T08:29:18;139.57;;;65.73;;
19414;SDS011;9843;48.882;12.592;2024-03-02T08:31:45;140.93;;;65.67;;
19414;SDS011;9843;48.882;12.592;2024-03-02T08:34:12;121.27;;;63.57;;
19414;SDS011;9843;48.882;12.592;2024-03-02T08:36:41;129.60;;;58.20;;
19414;SDS011;9843;48.882;12.592;2024-03-02T08:39:08;126.20;;;61.03;;
19414;SDS011;9843;48.882;12.592;2024-03-02T08:41:40;109.13;;;58.43;;
19414;SDS011;9843;48.882;12.592;2024-03-02T08:44:07;95.50;;;53.97;;
19414;SDS011;9843;48.882;12.592;2024-03-02T08:46:34;101.33;;;51.13;;
19414;SDS011;9843;48.882;12.592;2024-03-02T08:49:01;99.63;;;54.87;;
19414;SDS011;9843;48.882;12.592;2024-03-02T08:51:29;90.23;;;50.00;;
19414;SDS011;9843;48.882;12.592;2024-03-02T08:53:58;97.30;;;51.57;;
19414;SDS011;9843;48.882;12.592;2024-03-02T08:56:25;91.40;;;52.57;;
19414;SDS011;9843;48.882;12.592;2024-03-02T08:58:52;82.57;;;44.33;;
19414;SDS011;9843;48.882;12.592;2024-03-02T09:01:19;85.60;;;46.20;;
19414;SDS011;9843;48.882;12.592;2024-03-02T09:03:47;78.67;;;43.60;;
19414;SDS011;9843;48.882;12.592;2024-03-02T09:06:14;73.77;;;45.77;;
19414;SDS011;9843;48.882;12.592;2024-03-02T09:08:42;68.73;;;38.77;;
19414;SDS011;9843;48.882;12.592;2024-03-02T09:11:11;70.70;;;39.43;;
19414;SDS011;9843;48.882;12.592;2024-03-02T09:13:38;64.60;;;34.90;;
19414;SDS011;9843;48.882;12.592;2024-03-02T09:16:06;68.97;;;36.20;;
19414;SDS011;9843;48.882;12.592;2024-03-02T09:18:36;65.00;;;36.57;;
19414;SDS011;9843;48.882;12.592;2024-03-02T09:21:03;71.87;;;36.03;;
19414;SDS011;9843;48.882;12.592;2024-03-02T09:23:30;59.37;;;32.90;;
19414;SDS011;9843;48.882;12.592;2024-03-02T09:25:58;50.80;;;31.20;;
19414;SDS011;9843;48.882;12.592;2024-03-02T09:28:26;60.37;;;33.90;;
19414;SDS011;9843;48.882;12.592;2024-03-02T09:30:53;48.50;;;29.03;;
19414;SDS011;9843;48.882;12.592;2024-03-02T09:33:20;51.23;;;33.43;;
19414;SDS011;9843;48.882;12.592;2024-03-02T09:35:48;42.30;;;27.23;;
19414;SDS011;9843;48.882;12.592;2024-03-02T09:38:15;52.43;;;29.43;;
19414;SDS011;9843;48.882;12.592;2024-03-02T09:40:42;37.93;;;25.70;;
19414;SDS011;9843;48.882;12.592;2024-03-02T09:43:09;46.20;;;27.90;;
19414;SDS011;9843;48.882;12.592;2024-03-02T09:45:38;38.63;;;24.83;;
19414;SDS011;9843;48.882;12.592;2024-03-02T09:48:05;34.77;;;22.03;;
19414;SDS011;9843;48.882;12.592;2024-03-02T09:50:32;33.13;;;22.70;;
19414;SDS011;9843;48.882;12.592;2024-03-02T09:52:59;37.73;;;23.60;;
19414;SDS011;9843;48.882;12.592;2024-03-02T09:55:27;28.97;;;20.10;;
19414;SDS011;9843;48.882;12.592;2024-03-02T09:57:54;29.90;;;21.67;;
19414;SDS011;9843;48.882;12.592;2024-03-02T10:00:21;29.87;;;21.67;;
19414;SDS011;9843;48.882;12.592;2024-03-02T10:02:49;32.60;;;20.23;;
19414;SDS011;9843;48.882;12.592;2024-03-02T10:05:23;30.53;;;20.97;;
19414;SDS011;9843;48.882;12.592;2024-03-02T10:07:58;39.50;;;21.53;;
19414;SDS011;9843;48.882;12.592;2024-03-02T10:10:26;26.07;;;19.27;;
19414;SDS011;9843;48.882;12.592;2024-03-02T10:13:03;28.83;;;18.03;;
19414;SDS011;9843;48.882;12.592;2024-03-02T10:15:31;31.77;;;20.20;;
19414;SDS011;9843;48.882;12.592;2024-03-02T10:17:59;26.67;;;19.77;;
19414;SDS011;9843;48.882;12.592;2024-03-02T10:20:26;29.47;;;19.97;;
19414;SDS011;9843;48.882;12.592;2024-03-02T10:22:54;31.97;;;20.57;;
19414;SDS011;9843;48.882;12.592;2024-03-02T10:25:28;29.90;;;19.60;;
19414;SDS011;9843;48.882;12.592;2024-03-02T10:27:57;29.03;;;19.63;;
19414;SDS011;9843;48.882;12.592;2024-03-02T10:30:24;24.70;;;17.63;;
19414;SDS011;9843;48.882;12.592;2024-03-02T10:32:52;30.53;;;20.53;;
19414;SDS011;9843;48.882;12.592;2024-03-02T10:35:21;29.17;;;19.00;;
19414;SDS011;9843;48.882;12.592;2024-03-02T10:37:49;28.60;;;18.93;;
19414;SDS011;9843;48.882;12.592;2024-03-02T10:40:17;25.13;;;19.47;;
19414;SDS011;9843;48.882;12.592;2024-03-02T10:42:45;26.00;;;18.23;;
19414;SDS011;9843;48.882;12.592;2024-03-02T10:45:12;30.13;;;22.47;;
19414;SDS011;9843;48.882;12.592;2024-03-02T10:47:41;27.43;;;20.17;;
19414;SDS011;9843;48.882;12.592;2024-03-02T10:50:09;29.33;;;19.73;;
19414;SDS011;9843;48.882;12.592;2024-03-02T10:52:37;22.50;;;16.53;;
19414;SDS011;9843;48.882;12.592;2024-03-02T10:55:05;29.37;;;20.50;;
19414;SDS011;9843;48.882;12.592;2024-03-02T10:57:37;27.87;;;19.50;;
19414;SDS011;9843;48.882;12.592;2024-03-02T11:00:07;28.03;;;18.53;;
19414;SDS011;9843;48.882;12.592;2024-03-02T11:02:40;38.13;;;22.00;;
19414;SDS011;9843;48.882;12.592;2024-03-02T11:05:08;35.20;;;21.37;;
19414;SDS011;9843;48.882;12.592;2024-03-02T11:07:38;33.20;;;19.63;;
19414;SDS011;9843;48.882;12.592;2024-03-02T11:10:05;36.13;;;23.07;;
19414;SDS011;9843;48.882;12.592;2024-03-02T11:12:36;30.33;;;20.10;;
19414;SDS011;9843;48.882;12.592;2024-03-02T11:15:03;31.13;;;20.83;;
19414;SDS011;9843;48.882;12.592;2024-03-02T11:17:31;34.90;;;23.43;;
19414;SDS011;9843;48.882;12.592;2024-03-02T11:19:58;29.67;;;20.10;;
19414;SDS011;9843;48.882;12.592;2024-03-02T11:22:26;32.87;;;21.83;;
19414;SDS011;9843;48.882;12.592;2024-03-02T11:24:54;26.63;;;20.53;;
19414;SDS011;9843;48.882;12.592;2024-03-02T11:30:07;34.53;;;21.83;;
19414;SDS011;9843;48.882;12.592;2024-03-02T11:32:34;30.37;;;21.17;;
19414;SDS011;9843;48.882;12.592;2024-03-02T11:35:01;30.17;;;18.93;;
19414;SDS011;9843;48.882;12.592;2024-03-02T11:37:29;28.50;;;19.43;;
19414;SDS011;9843;48.882;12.592;2024-03-02T11:39:58;34.80;;;20.97;;
19414;SDS011;9843;48.882;12.592;2024-03-02T11:42:25;26.83;;;19.63;;
19414;SDS011;9843;48.882;12.592;2024-03-02T11:44:52;36.33;;;23.83;;
19414;SDS011;9843;48.882;12.592;2024-03-02T11:47:23;30.03;;;22.03;;
19414;SDS011;9843;48.882;12.592;2024-03-02T11:49:50;27.90;;;19.30;;
19414;SDS011;9843;48.882;12.592;2024-03-02T11:52:17;29.70;;;21.07;;
19414;SDS011;9843;48.882;12.592;2024-03-02T11:54:45;34.30;;;20.40;;
19414;SDS011;9843;48.882;12.592;2024-03-02T11:57:15;34.67;;;20.17;;
19414;SDS011;9843;48.882;12.592;2024-03-02T11:59:42;33.47;;;21.10;;
19414;SDS011;9843;48.882;12.592;2024-03-02T12:02:14;26.53;;;18.70;;
19414;SDS011;9843;48.882;12.592;2024-03-02T12:04:42;33.60;;;21.10;;
19414;SDS011;9843;48.882;12.592;2024-03-02T12:07:09;26.23;;;20.10;;
19414;SDS011;9843;48.882;12.592;2024-03-02T12:09:37;33.00;;;21.07;;
19414;SDS011;9843;48.882;12.592;2024-03-02T12:12:04;26.80;;;19.87;;
19414;SDS011;9843;48.882;12.592;2024-03-02T12:14:33;34.27;;;20.27;;
19414;SDS011;9843;48.882;12.592;2024-03-02T12:17:00;28.60;;;17.97;;
19414;SDS011;9843;48.882;12.592;2024-03-02T12:19:29;31.73;;;19.60;;
19414;SDS011;9843;48.882;12.592;2024-03-02T12:21:56;32.70;;;20.50;;
19414;SDS011;9843;48.882;12.592;2024-03-02T12:24:24;31.83;;;21.03;;
19414;SDS011;9843;48.882;12.592;2024-03-02T12:26:51;28.43;;;20.10;;
19414;SDS011;9843;48.882;12.592;2024-03-02T12:29:19;30.50;;;20.33;;
19414;SDS011;9843;48.882;12.592;2024-03-02T12:31:48;34.93;;;19.37;;
19414;SDS011;9843;48.882;12.592;2024-03-02T12:34:16;32.13;;;21.97;;
19414;SDS011;9843;48.882;12.592;2024-03-02T12:36:44;30.93;;;20.60;;
19414;SDS011;9843;48.882;12.592;2024-03-02T12:39:14;31.70;;;19.07;;
19414;SDS011;9843;48.882;12.592;2024-03-02T12:41:41;26.97;;;18.47;;
19414;SDS011;9843;48.882;12.592;2024-03-02T12:44:08;28.87;;;19.57;;
19414;SDS011;9843;48.882;12.592;2024-03-02T12:46:35;28.90;;;19.53;;
19414;SDS011;9843;48.882;12.592;2024-03-02T12:49:08;37.33;;;21.90;;
19414;SDS011;9843;48.882;12.592;2024-03-02T12:51:36;33.07;;;22.13;;
19414;SDS011;9843;48.882;12.592;2024-03-02T12:54:05;37.77;;;18.77;;
19414;SDS011;9843;48.882;12.592;2024-03-02T12:56:32;27.00;;;19.47;;
19414;SDS011;9843;48.882;12.592;2024-03-02T12:58:59;27.97;;;20.43;;
19414;SDS011;9843;48.882;12.592;2024-03-02T13:01:27;29.03;;;18.60;;
19414;SDS011;9843;48.882;12.592;2024-03-02T13:03:54;28.63;;;18.70;;
19414;SDS011;9843;48.882;12.592;2024-03-02T13:06:23;27.30;;;19.67;;
19414;SDS011;9843;48.882;12.592;2024-03-02T13:08:52;29.57;;;18.37;;
19414;SDS011;9843;48.882;12.592;2024-03-02T13:11:20;27.10;;;18.63;;
19414;SDS011;9843;48.882;12.592;2024-03-02T13:13:48;24.07;;;17.07;;
19414;SDS011;9843;48.882;12.592;2024-03-02T13:16:15;25.00;;;16.80;;
19414;SDS011;9843;48.882;12.592;2024-03-02T13:18:44;24.77;;;16.83;;
19414;SDS011;9843;48.882;12.592;2024-03-02T13:21:11;27.13;;;18.07;;
19414;SDS011;9843;48.882;12.592;2024-03-02T13:23:39;22.63;;;15.13;;
19414;SDS011;9843;48.882;12.592;2024-03-02T13:26:07;25.87;;;17.73;;
19414;SDS011;9843;48.882;12.592;2024-03-02T13:28:35;25.80;;;16.93;;
19414;SDS011;9843;48.882;12.592;2024-03-02T13:31:03;23.67;;;15.77;;
19414;SDS011;9843;48.882;12.592;2024-03-02T13:33:31;34.60;;;18.60;;
19414;SDS011;9843;48.882;12.592;2024-03-02T13:35:58;22.30;;;15.57;;
19414;SDS011;9843;48.882;12.592;2024-03-02T13:38:26;25.30;;;16.77;;
19414;SDS011;9843;48.882;12.592;2024-03-02T13:40:55;25.57;;;18.60;;
19414;SDS011;9843;48.882;12.592;2024-03-02T13:43:22;27.67;;;19.10;;
19414;SDS011;9843;48.882;12.592;2024-03-02T13:45:49;26.60;;;17.40;;
19414;SDS011;9843;48.882;12.592;2024-03-02T13:48:18;26.93;;;15.93;;
19414;SDS011;9843;48.882;12.592;2024-03-02T13:50:45;23.47;;;17.13;;
19414;SDS011;9843;48.882;12.592;2024-03-02T13:53:12;19.73;;;14.73;;
19414;SDS011;9843;48.882;12.592;2024-03-02T13:55:40;16.87;;;12.93;;
19414;SDS011;9843;48.882;12.592;2024-03-02T13:58:09;23.53;;;14.50;;
19414;SDS011;9843;48.882;12.592;2024-03-02T14:00:36;22.00;;;13.97;;
19414;SDS011;9843;48.882;12.592;2024-03-02T14:03:04;21.07;;;14.27;;
19414;SDS011;9843;48.882;12.592;2024-03-02T14:05:31;18.23;;;12.13;;
19414;SDS011;9843;48.882;12.592;2024-03-02T14:07:58;17.43;;;12.73;;
19414;SDS011;9843;48.882;12.592;2024-03-02T14:10:26;20.10;;;12.27;;
19414;SDS011;9843;48.882;12.592;2024-03-02T14:12:53;21.67;;;13.43;;
19414;SDS011;9843;48.882;12.592;2024-03-02T14:15:22;20.67;;;13.87;;
19414;SDS011;9843;48.882;12.592;2024-03-02T14:17:50;20.07;;;12.37;;
19414;SDS011;9843;48.882;12.592;2024-03-02T14:20:17;20.37;;;15.53;;